Time;durP1;ratioP1;P1;durP2;ratioP2;P2;SDS_P1;SDS_P2;PMS_P1;PMS_P2;Temp;Humidity;BMP_temperature;BMP_pressure;BME280_temperature;BME280_humidity;BME280_pressure;Samples;Min_cycle;Max_cycle;Signal;HPM_P1;HPM_P2
2024/01/11 00:00:21;;;;;;;;;;;;;;;5.70;36.63;101290.28;4446812;32;34096;-78
2024/01/11 00:02:48;;;;;;;;;;;;;;;5.81;36.33;101285.19;4449795;32;32957;-78
2024/01/11 00:05:16;;;;;;;;;;;;;;;5.50;36.63;101300.47;4448065;32;34313;-78
2024/01/11 00:07:43;;;;;;;;;;;;;;;5.57;36.53;101296.78;4434803;32;34226;-78
2024/01/11 00:10:11;;;;;;;;;;;;;;;5.68;36.36;101291.84;4429536;32;32327;-79
2024/01/11 00:12:38;;;;;;;;;;;;;;;5.30;36.91;101291.00;4452276;32;34122;-78
2024/01/11 00:15:05;;;;;;;;;;;;;;;5.82;35.96;101293.03;4448994;32;33572;-79
2024/01/11 00:17:33;;;;;;;;;;;;;;;5.56;36.21;101290.72;4450970;32;33976;-78
2024/01/11 00:20:01;;;;;;;;;;;;;;;5.44;36.53;101289.66;4431005;32;34069;-78
2024/01/11 00:22:28;;;;;;;;;;;;;;;5.36;36.62;101290.66;4445043;32;34541;-79
2024/01/11 00:24:55;;;;;;;;;;;;;;;5.41;36.83;101289.38;4438951;32;34503;-78
2024/01/11 00:27:22;;;;;;;;;;;;;;;5.32;36.88;101280.06;4443487;32;34874;-78
2024/01/11 00:29:50;;;;;;;;;;;;;;;5.41;36.95;101277.44;4456606;32;34195;-79
2024/01/11 00:32:17;;;;;;;;;;;;;;;5.14;37.51;101291.28;4453292;32;34447;-78
2024/01/11 00:34:45;;;;;;;;;;;;;;;5.15;37.47;101285.38;4439931;32;33607;-78
2024/01/11 00:37:12;;;;;;;;;;;;;;;5.27;36.79;101275.28;4449300;32;34721;-78
2024/01/11 00:39:39;;;;;;;;;;;;;;;6.03;35.38;101280.28;4443466;32;34614;-79
2024/01/11 00:42:07;;;;;;;;;;;;;;;5.46;36.05;101277.84;4451066;32;34208;-79
2024/01/11 00:44:34;;;;;;;;;;;;;;;5.15;36.69;101267.37;4447787;32;33536;-78
2024/01/11 00:47:01;;;;;;;;;;;;;;;5.14;36.84;101275.88;4453058;32;34286;-79
2024/01/11 00:49:29;;;;;;;;;;;;;;;4.78;37.26;101276.00;4433848;32;34476;-78
2024/01/11 00:51:56;;;;;;;;;;;;;;;5.00;37.07;101271.16;4448238;32;35165;-78
2024/01/11 00:54:24;;;;;;;;;;;;;;;5.22;36.85;101256.91;4452284;32;33151;-78
2024/01/11 00:56:52;;;;;;;;;;;;;;;5.24;36.71;101255.38;4445217;32;34190;-78
2024/01/11 00:59:19;;;;;;;;;;;;;;;5.16;36.75;101253.81;4448353;32;34050;-78
2024/01/11 01:01:50;;;;;;;;;;;;;;;5.34;36.58;101256.19;4450202;32;34175;-78
2024/01/11 01:04:17;;;;;;;;;;;;;;;5.35;36.31;101258.91;4434149;32;33672;-79
2024/01/11 01:06:45;;;;;;;;;;;;;;;5.29;36.57;101253.22;4450222;32;33959;-79
2024/01/11 01:09:13;;;;;;;;;;;;;;;5.21;36.61;101249.06;4449560;32;34163;-79
2024/01/11 01:11:40;;;;;;;;;;;;;;;5.41;36.19;101243.09;4432606;32;34408;-79
2024/01/11 01:14:08;;;;;;;;;;;;;;;5.58;35.92;101237.81;4437441;32;34133;-78
2024/01/11 01:16:35;;;;;;;;;;;;;;;5.44;35.86;101233.13;4450225;32;34267;-78
2024/01/11 01:19:02;;;;;;;;;;;;;;;5.29;36.21;101230.09;4440972;32;35047;-79
2024/01/11 01:21:30;;;;;;;;;;;;;;;5.30;36.43;101234.47;4450017;32;34079;-79
2024/01/11 01:23:58;;;;;;;;;;;;;;;5.22;36.80;101231.22;4447645;32;33596;-78
2024/01/11 01:26:25;;;;;;;;;;;;;;;5.10;36.77;101230.13;4452523;32;33998;-79
2024/01/11 01:28:52;;;;;;;;;;;;;;;5.02;36.92;101229.47;4447488;32;34160;-78
2024/01/11 01:31:21;;;;;;;;;;;;;;;5.04;37.12;101234.69;4447648;32;34416;-78
2024/01/11 01:33:48;;;;;;;;;;;;;;;4.69;37.27;101219.59;4451531;32;33628;-78
2024/01/11 01:36:15;;;;;;;;;;;;;;;4.74;37.38;101210.66;4437754;32;32783;-78
2024/01/11 01:38:42;;;;;;;;;;;;;;;4.80;37.27;101211.19;4452169;32;34153;-78
2024/01/11 01:41:10;;;;;;;;;;;;;;;4.82;37.54;101207.09;4449032;32;33833;-78
2024/01/11 01:43:37;;;;;;;;;;;;;;;4.86;37.31;101206.59;4454383;32;33262;-78
2024/01/11 01:46:05;;;;;;;;;;;;;;;4.91;37.15;101205.38;4424194;32;32217;-78
2024/01/11 01:48:32;;;;;;;;;;;;;;;4.71;37.38;101200.09;4458184;32;33613;-78
2024/01/11 01:50:59;;;;;;;;;;;;;;;4.74;37.53;101200.38;4457042;32;33625;-78
2024/01/11 01:53:28;;;;;;;;;;;;;;;4.95;37.31;101197.94;4448919;32;33709;-78
2024/01/11 01:55:55;;;;;;;;;;;;;;;4.75;37.29;101198.72;4449411;32;33993;-78
2024/01/11 01:58:23;;;;;;;;;;;;;;;5.12;36.86;101187.50;4433152;32;34113;-79
2024/01/11 02:00:53;;;;;;;;;;;;;;;5.17;36.74;101182.78;4442756;32;34878;-78
2024/01/11 02:03:20;;;;;;;;;;;;;;;5.12;36.81;101178.12;4453854;32;33694;-78
2024/01/11 02:05:48;;;;;;;;;;;;;;;5.09;36.73;101182.09;4444477;32;34257;-79
2024/01/11 02:08:15;;;;;;;;;;;;;;;4.85;37.16;101191.09;4441669;32;34870;-78
2024/01/11 02:10:43;;;;;;;;;;;;;;;4.84;37.47;101187.59;4432582;32;34100;-79
2024/01/11 02:13:12;;;;;;;;;;;;;;;5.04;37.13;101173.06;4452344;32;34082;-79
2024/01/11 02:15:40;;;;;;;;;;;;;;;4.91;37.34;101176.22;4454652;32;34567;-78
2024/01/11 02:18:07;;;;;;;;;;;;;;;4.82;37.46;101171.16;4459962;32;33587;-79
2024/01/11 02:20:35;;;;;;;;;;;;;;;4.47;37.75;101168.87;4439441;32;34847;-78
2024/01/11 02:23:06;;;;;;;;;;;;;;;4.59;37.76;101165.63;4454469;32;34005;-78
2024/01/11 02:25:33;;;;;;;;;;;;;;;5.13;37.07;101161.03;4432756;32;34924;-79
2024/01/11 02:28:01;;;;;;;;;;;;;;;4.70;37.71;101150.44;4447208;32;34817;-78
2024/01/11 02:30:28;;;;;;;;;;;;;;;4.90;37.33;101157.34;4458823;32;34171;-78
2024/01/11 02:32:55;;;;;;;;;;;;;;;4.79;37.66;101160.62;4452734;32;32196;-78
2024/01/11 02:35:23;;;;;;;;;;;;;;;5.01;37.25;101147.12;4448406;32;33969;-78
2024/01/11 02:37:50;;;;;;;;;;;;;;;4.60;38.04;101149.50;4450850;32;35053;-79
2024/01/11 02:40:17;;;;;;;;;;;;;;;4.44;37.95;101145.53;4448414;32;35129;-79
2024/01/11 02:42:45;;;;;;;;;;;;;;;4.81;37.56;101141.13;4438767;32;34226;-79
2024/01/11 02:45:12;;;;;;;;;;;;;;;4.81;37.50;101142.78;4452782;32;34069;-78
2024/01/11 02:47:40;;;;;;;;;;;;;;;4.82;37.30;101140.34;4447353;32;34626;-78
2024/01/11 02:50:08;;;;;;;;;;;;;;;4.51;37.58;101127.34;4451813;32;34219;-78
2024/01/11 02:52:35;;;;;;;;;;;;;;;4.56;37.55;101134.53;4452117;32;33687;-79
2024/01/11 02:55:03;;;;;;;;;;;;;;;4.83;37.14;101129.34;4451373;32;34169;-78
2024/01/11 02:57:30;;;;;;;;;;;;;;;4.83;36.86;101126.75;4448354;32;34988;-79
2024/01/11 02:59:58;;;;;;;;;;;;;;;4.82;36.94;101124.06;4453723;32;34365;-78
2024/01/11 03:02:25;;;;;;;;;;;;;;;4.64;37.37;101128.47;4447006;32;33513;-78
2024/01/11 03:04:52;;;;;;;;;;;;;;;4.85;36.97;101130.38;4452143;32;33938;-79
2024/01/11 03:07:20;;;;;;;;;;;;;;;4.74;37.14;101120.81;4452582;32;34871;-78
2024/01/11 03:09:47;;;;;;;;;;;;;;;4.75;37.15;101106.28;4454850;32;33973;-78
2024/01/11 03:12:14;;;;;;;;;;;;;;;4.67;37.39;101118.44;4449088;32;33111;-78
2024/01/11 03:14:42;;;;;;;;;;;;;;;4.61;37.58;101111.09;4448350;32;34018;-78
2024/01/11 03:17:09;;;;;;;;;;;;;;;4.68;37.64;101115.13;4449192;32;34284;-79
2024/01/11 03:19:40;;;;;;;;;;;;;;;4.66;37.63;101102.16;4446740;32;34104;-79
2024/01/11 03:22:07;;;;;;;;;;;;;;;4.57;37.88;101106.47;4448917;32;34016;-78
2024/01/11 03:24:41;;;;;;;;;;;;;;;4.71;37.92;101106.03;4433784;32;32973;-78
2024/01/11 03:27:08;;;;;;;;;;;;;;;4.51;38.06;101096.56;4438846;32;33712;-78
2024/01/11 03:29:35;;;;;;;;;;;;;;;4.76;37.73;101091.03;4447996;32;34328;-78
2024/01/11 03:32:03;;;;;;;;;;;;;;;4.97;37.30;101099.72;4453793;32;33620;-79
2024/01/11 03:34:30;;;;;;;;;;;;;;;4.87;37.38;101087.75;4453030;32;33944;-78
2024/01/11 03:36:58;;;;;;;;;;;;;;;4.91;37.29;101087.25;4451237;32;33749;-79
2024/01/11 03:39:25;;;;;;;;;;;;;;;4.71;37.71;101084.59;4451459;32;34108;-78
2024/01/11 03:41:52;;;;;;;;;;;;;;;4.76;37.66;101082.44;4453815;32;33546;-79
2024/01/11 03:44:20;;;;;;;;;;;;;;;4.70;37.73;101077.66;4453266;32;33930;-79
2024/01/11 03:46:48;;;;;;;;;;;;;;;4.87;37.52;101072.34;4450378;32;33989;-78
2024/01/11 03:49:15;;;;;;;;;;;;;;;5.30;36.67;101065.78;4453048;32;34709;-78
2024/01/11 03:51:44;;;;;;;;;;;;;;;5.09;37.01;101069.09;4448053;32;33481;-79
2024/01/11 03:54:11;;;;;;;;;;;;;;;4.93;37.15;101065.19;4449466;32;34914;-78
2024/01/11 03:56:39;;;;;;;;;;;;;;;4.82;37.43;101058.19;4452632;32;34739;-78
2024/01/11 03:59:06;;;;;;;;;;;;;;;4.89;37.19;101055.41;4452946;32;34459;-78
2024/01/11 04:01:38;;;;;;;;;;;;;;;4.92;37.43;101054.78;4425280;32;34233;-78
2024/01/11 04:04:06;;;;;;;;;;;;;;;4.77;37.60;101049.22;4435171;32;34599;-78
2024/01/11 04:06:33;;;;;;;;;;;;;;;4.76;37.57;101042.28;4449471;32;33644;-78
2024/01/11 04:09:00;;;;;;;;;;;;;;;5.14;37.00;101044.72;4445767;32;34802;-78
2024/01/11 04:11:28;;;;;;;;;;;;;;;4.53;38.02;101048.84;4447442;32;33418;-79
2024/01/11 04:13:55;;;;;;;;;;;;;;;4.67;37.99;101052.59;4443934;32;34067;-78
2024/01/11 04:16:23;;;;;;;;;;;;;;;4.93;37.43;101056.59;4447907;32;33641;-79
2024/01/11 04:18:50;;;;;;;;;;;;;;;4.82;37.66;101052.19;4433408;32;35203;-78
2024/01/11 04:21:30;;;;;;;;;;;;;;;4.82;37.73;101050.50;4452313;32;33675;-79
2024/01/11 04:23:57;;;;;;;;;;;;;;;4.65;37.84;101050.69;4458658;32;34840;-78
2024/01/11 04:26:24;;;;;;;;;;;;;;;5.10;37.18;101060.63;4452665;32;35073;-79
2024/01/11 04:28:52;;;;;;;;;;;;;;;4.81;37.52;101056.41;4450644;32;34025;-79
2024/01/11 04:31:21;;;;;;;;;;;;;;;4.96;37.31;101058.50;4450333;32;34274;-78
2024/01/11 04:33:49;;;;;;;;;;;;;;;4.90;37.42;101046.94;4448230;32;34130;-80
2024/01/11 04:36:16;;;;;;;;;;;;;;;4.76;37.45;101057.66;4450187;32;34231;-79
2024/01/11 04:38:47;;;;;;;;;;;;;;;4.83;37.45;101054.88;4451926;32;34409;-79
2024/01/11 04:41:14;;;;;;;;;;;;;;;4.76;37.42;101067.03;4446367;32;33320;-78
2024/01/11 04:43:42;;;;;;;;;;;;;;;4.70;37.51;101068.28;4449469;32;34880;-79
2024/01/11 04:46:16;;;;;;;;;;;;;;;4.68;37.63;101064.69;4450560;32;33883;-78
2024/01/11 04:48:44;;;;;;;;;;;;;;;4.68;37.57;101063.81;4447370;32;34089;-79
2024/01/11 04:51:12;;;;;;;;;;;;;;;4.94;37.17;101063.50;4446744;32;33651;-79
2024/01/11 04:53:40;;;;;;;;;;;;;;;4.73;37.61;101057.37;4447965;32;33643;-79
2024/01/11 04:56:07;;;;;;;;;;;;;;;4.64;38.11;101054.03;4449061;32;33856;-79
2024/01/11 04:58:35;;;;;;;;;;;;;;;4.89;37.50;101057.97;4426557;32;34206;-78
2024/01/11 05:01:02;;;;;;;;;;;;;;;5.09;37.28;101053.66;4453452;32;33648;-79
2024/01/11 05:03:30;;;;;;;;;;;;;;;4.89;37.39;101050.28;4444598;32;33923;-79
2024/01/11 05:05:57;;;;;;;;;;;;;;;4.84;37.47;101059.22;4449944;32;34944;-78
2024/01/11 05:08:25;;;;;;;;;;;;;;;4.44;38.42;101054.81;4442270;32;35051;-79
2024/01/11 05:10:53;;;;;;;;;;;;;;;4.68;38.12;101048.41;4450861;32;34159;-79
2024/01/11 05:13:20;;;;;;;;;;;;;;;4.75;37.82;101050.72;4438288;32;34302;-78
2024/01/11 05:15:47;;;;;;;;;;;;;;;4.75;37.82;101044.69;4452567;32;34338;-79
2024/01/11 05:18:15;;;;;;;;;;;;;;;4.63;37.98;101050.53;4448537;32;34472;-78
2024/01/11 05:20:42;;;;;;;;;;;;;;;4.84;37.76;101042.94;4451429;32;33256;-78
2024/01/11 05:23:10;;;;;;;;;;;;;;;4.89;37.92;101045.16;4436920;32;33346;-78
2024/01/11 05:25:37;;;;;;;;;;;;;;;4.94;37.89;101050.66;4445639;32;34495;-78
2024/01/11 05:28:04;;;;;;;;;;;;;;;5.23;37.41;101045.47;4449049;32;34472;-78
2024/01/11 05:30:33;;;;;;;;;;;;;;;5.72;36.14;101041.94;4447810;32;34704;-78
2024/01/11 05:33:00;;;;;;;;;;;;;;;5.30;36.64;101045.25;4449202;32;34915;-78
2024/01/11 05:35:28;;;;;;;;;;;;;;;5.14;36.85;101047.28;4447756;32;34325;-78
2024/01/11 05:37:56;;;;;;;;;;;;;;;4.97;37.31;101045.81;4449514;32;35047;-78
2024/01/11 05:40:23;;;;;;;;;;;;;;;5.24;36.93;101049.84;4449181;32;33990;-78
2024/01/11 05:42:50;;;;;;;;;;;;;;;4.80;37.73;101052.03;4449034;32;34959;-78
2024/01/11 05:45:18;;;;;;;;;;;;;;;5.07;37.50;101055.22;4451414;32;34123;-77
2024/01/11 05:47:53;;;;;;;;;;;;;;;5.04;37.56;101054.94;4439124;32;33672;-78
2024/01/11 05:50:20;;;;;;;;;;;;;;;5.04;37.44;101052.38;4456339;32;34045;-78
2024/01/11 05:52:48;;;;;;;;;;;;;;;5.02;37.45;101043.63;4442648;32;34211;-79
2024/01/11 05:55:16;;;;;;;;;;;;;;;5.34;36.89;101046.41;4434103;32;33911;-78
2024/01/11 05:57:43;;;;;;;;;;;;;;;4.74;37.94;101041.25;4454050;32;34318;-78
2024/01/11 06:00:10;;;;;;;;;;;;;;;4.93;37.84;101039.50;4450869;32;33492;-78
2024/01/11 06:02:38;;;;;;;;;;;;;;;5.37;37.10;101046.69;4451023;32;34706;-78
2024/01/11 06:05:07;;;;;;;;;;;;;;;5.24;37.16;101057.56;4450543;32;34223;-78
2024/01/11 06:07:34;;;;;;;;;;;;;;;4.98;37.94;101054.41;4428515;32;34227;-79
2024/01/11 06:10:02;;;;;;;;;;;;;;;5.29;37.39;101053.72;4447357;32;33956;-79
2024/01/11 06:12:30;;;;;;;;;;;;;;;4.91;37.60;101046.19;4454292;32;34040;-78
2024/01/11 06:14:57;;;;;;;;;;;;;;;5.61;36.51;101053.00;4453384;32;34637;-79
2024/01/11 06:17:25;;;;;;;;;;;;;;;5.23;37.00;101053.19;4439396;32;34874;-78
2024/01/11 06:19:52;;;;;;;;;;;;;;;5.20;36.92;101050.37;4450874;32;33758;-79
2024/01/11 06:22:19;;;;;;;;;;;;;;;4.88;37.45;101058.72;4454291;32;33958;-79
2024/01/11 06:24:47;;;;;;;;;;;;;;;5.06;37.13;101043.13;4446350;32;35574;-78
2024/01/11 06:27:15;;;;;;;;;;;;;;;4.90;37.19;101039.22;4446500;32;35044;-78
2024/01/11 06:29:42;;;;;;;;;;;;;;;5.36;36.62;101034.59;4449367;32;33064;-79
2024/01/11 06:32:10;;;;;;;;;;;;;;;5.21;36.84;101034.16;4447357;32;32372;-78
2024/01/11 06:34:37;;;;;;;;;;;;;;;5.54;36.39;101032.66;4452977;32;34169;-78
2024/01/11 06:37:04;;;;;;;;;;;;;;;5.81;35.50;101030.63;4449785;32;35078;-78
2024/01/11 06:39:32;;;;;;;;;;;;;;;5.97;35.51;101028.59;4454180;32;34139;-79
2024/01/11 06:42:00;;;;;;;;;;;;;;;5.54;36.28;101037.81;4443350;32;34113;-78
2024/01/11 06:44:27;;;;;;;;;;;;;;;5.81;36.16;101025.47;4453739;32;33785;-77
2024/01/11 06:46:54;;;;;;;;;;;;;;;5.05;37.42;101031.06;4455165;32;35208;-79
2024/01/11 06:49:22;;;;;;;;;;;;;;;5.73;36.28;101029.97;4455159;32;32967;-78
2024/01/11 06:51:49;;;;;;;;;;;;;;;5.87;36.11;101025.97;4448743;32;33597;-77
2024/01/11 06:54:17;;;;;;;;;;;;;;;5.53;36.56;101018.03;4449562;32;33668;-77
2024/01/11 06:56:44;;;;;;;;;;;;;;;5.11;37.71;101026.44;4439083;32;32937;-79
2024/01/11 06:59:11;;;;;;;;;;;;;;;5.74;37.19;101028.31;4449603;32;33664;-78
2024/01/11 07:01:39;;;;;;;;;;;;;;;5.49;37.81;101021.13;4451649;32;34015;-78
2024/01/11 07:04:06;;;;;;;;;;;;;;;4.87;38.44;101025.25;4448934;32;34152;-77
2024/01/11 07:06:33;;;;;;;;;;;;;;;5.39;38.37;101019.44;4453814;32;34172;-78
2024/01/11 07:09:01;;;;;;;;;;;;;;;4.97;38.70;101029.50;4445753;32;33753;-78
2024/01/11 07:11:28;;;;;;;;;;;;;;;5.18;38.97;101026.22;4445843;32;33668;-78
2024/01/11 07:13:56;;;;;;;;;;;;;;;4.42;39.95;101029.00;4430972;32;33936;-78
2024/01/11 07:16:23;;;;;;;;;;;;;;;5.30;38.78;101024.69;4448309;32;35145;-79
2024/01/11 07:18:50;;;;;;;;;;;;;;;5.35;38.89;101021.59;4453098;32;34244;-78
2024/01/11 07:21:29;;;;;;;;;;;;;;;5.85;38.11;101019.81;4452888;32;34112;-78
2024/01/11 07:23:59;;;;;;;;;;;;;;;5.47;38.85;101025.22;4432516;32;33993;-78
2024/01/11 07:26:27;;;;;;;;;;;;;;;5.86;38.41;101013.91;4460405;32;34738;-79
2024/01/11 07:28:54;;;;;;;;;;;;;;;5.37;39.63;101020.06;4443863;32;33641;-78
2024/01/11 07:31:22;;;;;;;;;;;;;;;5.65;39.08;101019.06;4449410;32;33562;-78
2024/01/11 07:33:50;;;;;;;;;;;;;;;5.56;39.12;101009.66;4453850;32;33959;-78
2024/01/11 07:36:17;;;;;;;;;;;;;;;6.25;38.41;101002.56;4447414;32;33898;-78
2024/01/11 07:38:45;;;;;;;;;;;;;;;6.76;37.37;101012.66;4450791;32;34335;-78
2024/01/11 07:41:12;;;;;;;;;;;;;;;6.75;37.19;101015.12;4449445;32;34828;-80
2024/01/11 07:43:40;;;;;;;;;;;;;;;6.35;38.26;101017.94;4424691;32;34138;-78
2024/01/11 07:46:20;;;;;;;;;;;;;;;6.02;39.17;101009.28;4448796;32;35099;-78
2024/01/11 07:49:05;;;;;;;;;;;;;;;6.48;38.32;101007.88;4453922;32;34547;-78
2024/01/11 07:51:34;;;;;;;;;;;;;;;6.49;38.43;101003.66;4448475;32;34178;-78
2024/01/11 07:56:07;;;;;;;;;;;;;;;6.19;42.91;101012.34;4489379;31;832384;-71
2024/01/11 07:58:37;;;;;;;;;;;;;;;6.20;39.59;100996.13;4482844;32;32694;-70
2024/01/11 08:01:04;;;;;;;;;;;;;;;6.48;38.74;100999.25;4501659;31;33642;-70
2024/01/11 08:03:34;;;;;;;;;;;;;;;6.36;38.51;101000.84;4506103;31;34016;-70
2024/01/11 08:06:02;;;;;;;;;;;;;;;6.62;37.91;101001.25;4503053;31;34699;-70
2024/01/11 08:08:29;;;;;;;;;;;;;;;6.43;38.34;100998.91;4473576;32;33996;-70
2024/01/11 08:10:56;;;;;;;;;;;;;;;6.23;38.73;100996.37;4480989;32;34061;-70
2024/01/11 08:13:24;;;;;;;;;;;;;;;5.80;38.98;100987.69;4481065;32;33636;-70
2024/01/11 08:15:53;;;;;;;;;;;;;;;5.89;39.55;100991.00;4480877;32;33970;-70
2024/01/11 08:18:20;;;;;;;;;;;;;;;5.74;39.78;100987.16;4491966;32;33370;-70
2024/01/11 08:20:48;;;;;;;;;;;;;;;6.63;38.14;100984.16;4483676;32;34189;-70
2024/01/11 08:23:16;;;;;;;;;;;;;;;6.35;38.75;100979.34;4475019;32;34177;-70
2024/01/11 08:25:43;;;;;;;;;;;;;;;5.91;39.48;100972.37;4493593;32;34090;-70
2024/01/11 08:28:11;;;;;;;;;;;;;;;6.99;37.60;100975.84;4491303;31;33252;-70
2024/01/11 08:30:38;;;;;;;;;;;;;;;7.19;37.25;100969.63;4491567;32;34869;-70
2024/01/11 08:33:06;;;;;;;;;;;;;;;6.49;38.79;100971.06;4483721;32;33903;-69
2024/01/11 08:35:33;;;;;;;;;;;;;;;6.08;39.56;100960.94;4487453;32;33888;-70
2024/01/11 08:38:01;;;;;;;;;;;;;;;6.41;38.98;100964.44;4487208;32;34005;-70
2024/01/11 08:40:29;;;;;;;;;;;;;;;6.26;39.73;100976.06;4492220;32;34711;-70
2024/01/11 08:42:56;;;;;;;;;;;;;;;6.07;39.88;100964.25;4484804;32;34023;-70
2024/01/11 08:45:23;;;;;;;;;;;;;;;6.56;39.29;100966.41;4490981;32;34488;-70
2024/01/11 08:47:51;;;;;;;;;;;;;;;6.61;39.13;100970.25;4488309;31;33172;-70
2024/01/11 08:50:20;;;;;;;;;;;;;;;6.89;38.28;100966.50;4485690;32;34981;-70
2024/01/11 08:52:50;;;;;;;;;;;;;;;6.06;40.12;100962.44;4494434;32;34373;-70
2024/01/11 08:55:19;;;;;;;;;;;;;;;6.60;39.53;100968.44;4492700;32;34802;-70
2024/01/11 08:57:47;;;;;;;;;;;;;;;7.25;38.07;100959.78;4492393;31;32390;-70
2024/01/11 09:00:17;;;;;;;;;;;;;;;6.86;38.49;100961.09;4470825;32;32906;-70
2024/01/11 09:02:45;;;;;;;;;;;;;;;7.01;38.58;100963.06;4484357;32;34072;-69
2024/01/11 09:05:16;;;;;;;;;;;;;;;6.88;38.98;100966.38;4479845;32;34029;-71
2024/01/11 09:07:43;;;;;;;;;;;;;;;6.50;39.91;100967.72;4478708;31;33433;-70
2024/01/11 09:10:11;;;;;;;;;;;;;;;6.79;39.28;100966.53;4480508;32;34587;-71
2024/01/11 09:12:38;;;;;;;;;;;;;;;6.58;39.37;100964.84;4472686;32;33977;-68
2024/01/11 09:15:06;;;;;;;;;;;;;;;6.98;38.68;100957.69;4479183;32;33954;-70
2024/01/11 09:17:34;;;;;;;;;;;;;;;6.64;39.36;100962.75;4477110;32;33353;-67
2024/01/11 09:20:01;;;;;;;;;;;;;;;6.52;39.25;100954.97;4477122;32;34289;-68
2024/01/11 09:22:29;;;;;;;;;;;;;;;6.46;39.91;100954.47;4476731;32;34097;-68
2024/01/11 09:24:56;;;;;;;;;;;;;;;7.33;38.07;100952.66;4457183;32;33363;-67
2024/01/11 09:27:23;;;;;;;;;;;;;;;7.75;37.71;100937.72;4478003;32;33116;-69
2024/01/11 09:29:51;;;;;;;;;;;;;;;7.82;37.05;100939.94;4485396;32;34214;-66
2024/01/11 09:32:23;;;;;;;;;;;;;;;7.97;35.96;100941.06;4471598;32;34678;-68
2024/01/11 09:34:50;;;;;;;;;;;;;;;7.42;36.63;100934.41;4479873;32;34459;-70
2024/01/11 09:37:19;;;;;;;;;;;;;;;7.21;36.98;100926.84;4479118;32;33343;-68
2024/01/11 09:39:47;;;;;;;;;;;;;;;7.01;37.07;100921.84;4464565;32;33174;-68
2024/01/11 09:42:14;;;;;;;;;;;;;;;7.67;35.88;100909.69;4464245;32;35080;-68
2024/01/11 09:44:42;;;;;;;;;;;;;;;7.71;36.16;100905.66;4470667;32;34056;-69
2024/01/11 09:47:10;;;;;;;;;;;;;;;7.91;38.12;100891.63;4470293;32;33374;-69
2024/01/11 09:49:46;;;;;;;;;;;;;;;7.74;38.10;100885.22;4464762;32;34091;-69
2024/01/11 09:52:14;;;;;;;;;;;;;;;7.15;38.14;100869.69;4464967;32;33433;-69
2024/01/11 09:54:42;;;;;;;;;;;;;;;7.68;39.31;100870.19;4464137;32;33353;-70
2024/01/11 09:57:09;;;;;;;;;;;;;;;7.48;37.63;100865.28;4469053;32;33081;-71
2024/01/11 09:59:38;;;;;;;;;;;;;;;7.80;38.33;100859.91;4470651;32;33482;-71
2024/01/11 10:02:08;;;;;;;;;;;;;;;7.84;37.01;100850.69;4464574;32;35014;-71
2024/01/11 10:04:37;;;;;;;;;;;;;;;7.83;38.18;100857.53;4451831;32;31951;-72
2024/01/11 10:07:04;;;;;;;;;;;;;;;7.83;41.19;100854.06;4465773;32;34044;-72
2024/01/11 10:09:32;;;;;;;;;;;;;;;8.25;42.21;100850.19;4483479;32;34331;-73
2024/01/11 10:11:59;;;;;;;;;;;;;;;9.16;34.66;100844.41;4480641;32;34255;-73
2024/01/11 10:14:27;;;;;;;;;;;;;;;8.89;34.43;100842.56;4480683;32;34153;-73
2024/01/11 10:16:55;;;;;;;;;;;;;;;9.28;33.22;100843.44;4482108;32;32776;-73
2024/01/11 10:19:22;;;;;;;;;;;;;;;8.63;34.42;100839.06;4447714;32;32798;-74
2024/01/11 10:21:50;;;;;;;;;;;;;;;9.05;33.98;100835.94;4474957;32;34581;-74
2024/01/11 10:24:18;;;;;;;;;;;;;;;8.74;34.65;100825.22;4465853;32;34663;-74
2024/01/11 10:26:45;;;;;;;;;;;;;;;9.18;34.38;100821.25;4477615;32;33988;-74
2024/01/11 10:29:13;;;;;;;;;;;;;;;8.05;35.85;100823.84;4483911;32;34638;-74
2024/01/11 10:31:40;;;;;;;;;;;;;;;8.52;35.46;100819.34;4480056;32;34802;-74
2024/01/11 10:34:08;;;;;;;;;;;;;;;8.73;35.56;100815.69;4484757;32;34500;-74
2024/01/11 10:36:36;;;;;;;;;;;;;;;9.03;35.05;100805.63;4484867;32;34041;-74
2024/01/11 10:39:10;;;;;;;;;;;;;;;8.81;35.45;100811.94;4455304;32;34846;-74
2024/01/11 10:41:38;;;;;;;;;;;;;;;9.07;35.00;100817.94;4469804;32;33964;-74
2024/01/11 10:44:24;;;;;;;;;;;;;;;9.21;34.93;100821.44;4468177;32;34242;-74
2024/01/11 10:46:54;;;;;;;;;;;;;;;9.13;34.94;100813.19;4479960;32;33209;-73
2024/01/11 10:49:21;;;;;;;;;;;;;;;8.88;35.25;100809.75;4458598;32;34902;-73
2024/01/11 10:51:53;;;;;;;;;;;;;;;9.01;35.30;100796.87;4469762;32;33824;-73
2024/01/11 10:54:22;;;;;;;;;;;;;;;8.83;35.19;100791.38;4482080;32;33837;-72
2024/01/11 10:56:49;;;;;;;;;;;;;;;9.20;34.95;100799.00;4479949;32;33728;-72
2024/01/11 10:59:16;;;;;;;;;;;;;;;8.93;35.60;100798.06;4463479;32;34581;-72
2024/01/11 11:01:44;;;;;;;;;;;;;;;9.90;33.70;100796.59;4455335;32;34193;-72
2024/01/11 11:04:11;;;;;;;;;;;;;;;9.25;34.48;100793.34;4467575;32;33460;-72
2024/01/11 11:06:38;;;;;;;;;;;;;;;9.56;33.75;100779.81;4470123;32;33322;-71
2024/01/11 11:09:07;;;;;;;;;;;;;;;9.54;33.73;100771.06;4469381;32;33887;-71
2024/01/11 11:11:35;;;;;;;;;;;;;;;9.55;33.81;100767.66;4465388;32;34138;-72
2024/01/11 11:14:02;;;;;;;;;;;;;;;9.91;32.74;100750.09;4470756;32;34748;-72
2024/01/11 11:16:30;;;;;;;;;;;;;;;9.76;33.55;100752.63;4470459;32;31241;-71
2024/01/11 11:18:58;;;;;;;;;;;;;;;10.13;33.20;100751.44;4482647;32;33967;-72
2024/01/11 11:21:26;;;;;;;;;;;;;;;9.86;33.41;100748.91;4455468;32;33842;-71
2024/01/11 11:23:55;;;;;;;;;;;;;;;10.19;32.53;100734.56;4473813;32;33905;-71
2024/01/11 11:26:23;;;;;;;;;;;;;;;10.28;31.68;100731.66;4469133;32;33027;-71
2024/01/11 11:28:50;;;;;;;;;;;;;;;9.60;32.83;100735.25;4460682;32;34008;-72
2024/01/11 11:31:37;;;;;;;;;;;;;;;10.04;33.51;100739.72;4466221;32;32845;-71
2024/01/11 11:34:05;;;;;;;;;;;;;;;10.10;35.51;100738.28;4469497;32;33712;-72
2024/01/11 11:36:34;;;;;;;;;;;;;;;9.78;34.24;100739.78;4477943;32;34187;-72
2024/01/11 11:39:02;;;;;;;;;;;;;;;10.18;32.44;100726.72;4470096;32;34595;-72
2024/01/11 11:41:30;;;;;;;;;;;;;;;10.55;33.15;100705.66;4482499;32;34441;-72
2024/01/11 11:44:02;;;;;;;;;;;;;;;10.22;36.64;100723.53;4470167;32;34614;-72
2024/01/11 11:46:31;;;;;;;;;;;;;;;11.02;31.29;100711.00;4473467;32;33269;-72
2024/01/11 11:48:59;;;;;;;;;;;;;;;10.89;32.08;100707.63;4447241;32;35032;-72
2024/01/11 11:51:27;;;;;;;;;;;;;;;10.86;31.24;100689.31;4472762;32;34229;-72
2024/01/11 11:53:55;;;;;;;;;;;;;;;10.36;34.45;100695.91;4474879;32;34121;-72
2024/01/11 11:56:23;;;;;;;;;;;;;;;10.27;33.93;100706.56;4478748;32;33160;-72
2024/01/11 11:58:54;;;;;;;;;;;;;;;10.02;35.90;100710.25;4441901;32;33331;-71
2024/01/11 12:01:23;;;;;;;;;;;;;;;10.58;31.56;100703.25;4464617;32;34243;-72
2024/01/11 12:03:52;;;;;;;;;;;;;;;10.89;30.95;100689.47;4465626;32;34191;-72
2024/01/11 12:06:20;;;;;;;;;;;;;;;10.07;34.07;100681.16;4483579;32;33284;-72
2024/01/11 12:08:48;;;;;;;;;;;;;;;10.93;31.40;100683.66;4457069;32;33884;-73
2024/01/11 12:11:20;;;;;;;;;;;;;;;10.74;31.62;100679.12;4478694;32;35079;-72
2024/01/11 12:13:48;;;;;;;;;;;;;;;10.65;31.39;100689.84;4467695;32;33888;-72
2024/01/11 12:16:15;;;;;;;;;;;;;;;10.64;31.45;100675.09;4458031;32;33356;-72
2024/01/11 12:18:45;;;;;;;;;;;;;;;10.81;31.39;100661.41;4453352;32;34075;-72
2024/01/11 12:21:13;;;;;;;;;;;;;;;11.20;30.47;100643.75;4471334;32;35016;-72
2024/01/11 12:23:40;;;;;;;;;;;;;;;11.26;30.02;100652.66;4466518;32;33825;-72
2024/01/11 12:26:12;;;;;;;;;;;;;;;10.74;33.20;100659.28;4482978;32;33191;-72
2024/01/11 12:28:41;;;;;;;;;;;;;;;11.10;33.04;100654.41;4456258;32;34290;-72
2024/01/11 12:31:09;;;;;;;;;;;;;;;11.25;32.60;100643.13;4465683;32;33747;-72
2024/01/11 12:33:38;;;;;;;;;;;;;;;11.15;30.66;100647.78;4471148;32;33417;-72
2024/01/11 12:36:07;;;;;;;;;;;;;;;11.10;30.64;100638.84;4466524;32;34068;-72
2024/01/11 12:38:35;;;;;;;;;;;;;;;11.27;29.84;100632.00;4450466;32;34257;-72
2024/01/11 12:41:03;;;;;;;;;;;;;;;11.58;29.39;100634.56;4470200;32;33998;-72
2024/01/11 12:43:31;;;;;;;;;;;;;;;10.82;30.82;100647.66;4479251;32;34532;-72
2024/01/11 12:45:59;;;;;;;;;;;;;;;11.10;31.98;100644.03;4472247;32;33426;-72
2024/01/11 12:48:26;;;;;;;;;;;;;;;11.40;30.09;100633.59;4469999;32;34284;-72
2024/01/11 12:50:54;;;;;;;;;;;;;;;11.84;29.14;100635.09;4468234;32;33983;-72